sensor_id;sensor_type;location;lat;lon;timestamp;temperature;humidity
37446;DHT22;23307;51.136;14.942;2023-11-21T00:01:45;10.00;99.90
37446;DHT22;23307;51.136;14.942;2023-11-21T00:04:11;10.00;99.90
37446;DHT22;23307;51.136;14.942;2023-11-21T00:06:36;10.00;99.90
37446;DHT22;23307;51.136;14.942;2023-11-21T00:09:02;9.90;99.90
37446;DHT22;23307;51.136;14.942;2023-11-21T00:11:28;9.90;99.90
37446;DHT22;23307;51.136;14.942;2023-11-21T00:13:54;9.90;99.90
37446;DHT22;23307;51.136;14.942;2023-11-21T00:16:20;9.90;99.90
37446;DHT22;23307;51.136;14.942;2023-11-21T00:18:45;9.90;99.90
37446;DHT22;23307;51.136;14.942;2023-11-21T00:21:12;9.90;99.90
37446;DHT22;23307;51.136;14.942;2023-11-21T00:23:38;9.90;99.90
37446;DHT22;23307;51.136;14.942;2023-11-21T00:26:03;9.90;99.90
37446;DHT22;23307;51.136;14.942;2023-11-21T00:28:29;9.90;99.90
37446;DHT22;23307;51.136;14.942;2023-11-21T00:30:55;9.80;99.90
37446;DHT22;23307;51.136;14.942;2023-11-21T00:33:20;9.80;99.90
37446;DHT22;23307;51.136;14.942;2023-11-21T00:35:46;9.80;99.90
37446;DHT22;23307;51.136;14.942;2023-11-21T00:38:12;9.80;99.90
37446;DHT22;23307;51.136;14.942;2023-11-21T00:40:37;9.80;99.90
37446;DHT22;23307;51.136;14.942;2023-11-21T00:43:03;9.80;99.90
37446;DHT22;23307;51.136;14.942;2023-11-21T00:45:28;9.80;99.90
37446;DHT22;23307;51.136;14.942;2023-11-21T00:47:54;9.80;99.90
37446;DHT22;23307;51.136;14.942;2023-11-21T00:50:22;9.80;99.90
37446;DHT22;23307;51.136;14.942;2023-11-21T00:52:47;9.80;99.90
37446;DHT22;23307;51.136;14.942;2023-11-21T00:55:13;9.80;99.90
37446;DHT22;23307;51.136;14.942;2023-11-21T00:57:38;9.80;99.90
37446;DHT22;23307;51.136;14.942;2023-11-21T01:00:05;9.80;99.90
37446;DHT22;23307;51.136;14.942;2023-11-21T01:02:43;9.80;99.90
37446;DHT22;23307;51.136;14.942;2023-11-21T01:05:09;9.70;99.90
37446;DHT22;23307;51.136;14.942;2023-11-21T01:07:35;9.70;99.90
37446;DHT22;23307;51.136;14.942;2023-11-21T01:10:05;9.70;99.90
37446;DHT22;23307;51.136;14.942;2023-11-21T01:12:34;9.70;99.90
37446;DHT22;23307;51.136;14.942;2023-11-21T01:14:59;9.70;99.90
37446;DHT22;23307;51.136;14.942;2023-11-21T01:17:26;9.70;99.90
37446;DHT22;23307;51.136;14.942;2023-11-21T01:19:52;9.70;99.90
37446;DHT22;23307;51.136;14.942;2023-11-21T01:22:18;9.70;99.90
37446;DHT22;23307;51.136;14.942;2023-11-21T01:24:47;9.70;99.90
37446;DHT22;23307;51.136;14.942;2023-11-21T01:27:13;9.70;99.90
37446;DHT22;23307;51.136;14.942;2023-11-21T01:29:38;9.70;99.90
37446;DHT22;23307;51.136;14.942;2023-11-21T01:32:04;9.70;99.90
37446;DHT22;23307;51.136;14.942;2023-11-21T01:34:30;9.70;99.90
37446;DHT22;23307;51.136;14.942;2023-11-21T01:36:56;9.70;99.90
37446;DHT22;23307;51.136;14.942;2023-11-21T01:39:21;9.70;99.90
37446;DHT22;23307;51.136;14.942;2023-11-21T01:41:50;9.70;99.90
37446;DHT22;23307;51.136;14.942;2023-11-21T01:44:16;9.60;99.90
37446;DHT22;23307;51.136;14.942;2023-11-21T01:46:42;9.60;99.90
37446;DHT22;23307;51.136;14.942;2023-11-21T01:49:09;9.60;99.90
37446;DHT22;23307;51.136;14.942;2023-11-21T01:51:41;9.60;99.90
37446;DHT22;23307;51.136;14.942;2023-11-21T01:54:09;9.60;99.90
37446;DHT22;23307;51.136;14.942;2023-11-21T01:56:35;9.60;99.90
37446;DHT22;23307;51.136;14.942;2023-11-21T01:59:01;9.60;99.90
37446;DHT22;23307;51.136;14.942;2023-11-21T02:01:26;9.60;99.90
37446;DHT22;23307;51.136;14.942;2023-11-21T02:03:52;9.60;99.90
37446;DHT22;23307;51.136;14.942;2023-11-21T02:06:18;9.60;99.90
37446;DHT22;23307;51.136;14.942;2023-11-21T02:08:43;9.60;99.90
37446;DHT22;23307;51.136;14.942;2023-11-21T02:11:10;9.70;99.90
37446;DHT22;23307;51.136;14.942;2023-11-21T02:13:38;9.70;99.90
37446;DHT22;23307;51.136;14.942;2023-11-21T02:16:04;9.70;99.90
37446;DHT22;23307;51.136;14.942;2023-11-21T02:18:31;9.70;99.90
37446;DHT22;23307;51.136;14.942;2023-11-21T02:20:57;9.60;99.90
37446;DHT22;23307;51.136;14.942;2023-11-21T02:23:22;9.70;99.90
37446;DHT22;23307;51.136;14.942;2023-11-21T02:25:48;9.70;99.90
37446;DHT22;23307;51.136;14.942;2023-11-21T02:28:14;9.70;99.90
37446;DHT22;23307;51.136;14.942;2023-11-21T02:30:53;9.70;99.90
37446;DHT22;23307;51.136;14.942;2023-11-21T02:33:24;9.60;99.90
37446;DHT22;23307;51.136;14.942;2023-11-21T02:35:50;9.60;99.90
37446;DHT22;23307;51.136;14.942;2023-11-21T02:38:20;9.60;99.90
37446;DHT22;23307;51.136;14.942;2023-11-21T02:40:46;9.50;99.90
37446;DHT22;23307;51.136;14.942;2023-11-21T02:43:12;9.50;99.90
37446;DHT22;23307;51.136;14.942;2023-11-21T02:45:37;9.60;99.90
37446;DHT22;23307;51.136;14.942;2023-11-21T02:48:03;9.50;99.90
37446;DHT22;23307;51.136;14.942;2023-11-21T02:50:29;9.50;99.90
37446;DHT22;23307;51.136;14.942;2023-11-21T02:52:55;9.50;99.90
37446;DHT22;23307;51.136;14.942;2023-11-21T02:55:23;9.50;99.90
37446;DHT22;23307;51.136;14.942;2023-11-21T02:57:50;9.50;99.90
37446;DHT22;23307;51.136;14.942;2023-11-21T03:00:16;9.50;99.90
37446;DHT22;23307;51.136;14.942;2023-11-21T03:02:42;9.50;99.90
37446;DHT22;23307;51.136;14.942;2023-11-21T03:05:08;9.50;99.90
37446;DHT22;23307;51.136;14.942;2023-11-21T03:07:34;9.50;99.90
37446;DHT22;23307;51.136;14.942;2023-11-21T03:10:00;9.50;99.90
37446;DHT22;23307;51.136;14.942;2023-11-21T03:12:26;9.60;99.90
37446;DHT22;23307;51.136;14.942;2023-11-21T03:14:51;9.60;99.90
37446;DHT22;23307;51.136;14.942;2023-11-21T03:17:17;9.60;99.90
37446;DHT22;23307;51.136;14.942;2023-11-21T03:19:42;9.50;99.90
37446;DHT22;23307;51.136;14.942;2023-11-21T03:22:08;9.50;99.90
37446;DHT22;23307;51.136;14.942;2023-11-21T03:24:34;9.50;99.90
37446;DHT22;23307;51.136;14.942;2023-11-21T03:27:00;9.50;99.90
37446;DHT22;23307;51.136;14.942;2023-11-21T03:29:25;9.50;99.90
37446;DHT22;23307;51.136;14.942;2023-11-21T03:31:51;9.50;99.90
37446;DHT22;23307;51.136;14.942;2023-11-21T03:34:24;9.50;99.90
37446;DHT22;23307;51.136;14.942;2023-11-21T03:36:51;9.50;99.90
37446;DHT22;23307;51.136;14.942;2023-11-21T03:39:17;9.50;99.90
37446;DHT22;23307;51.136;14.942;2023-11-21T03:41:43;9.50;99.90
37446;DHT22;23307;51.136;14.942;2023-11-21T03:44:08;9.50;99.90
37446;DHT22;23307;51.136;14.942;2023-11-21T03:46:34;9.50;99.90
37446;DHT22;23307;51.136;14.942;2023-11-21T03:48:59;9.40;99.90
37446;DHT22;23307;51.136;14.942;2023-11-21T03:51:25;9.50;99.90
37446;DHT22;23307;51.136;14.942;2023-11-21T03:53:50;9.50;99.90
37446;DHT22;23307;51.136;14.942;2023-11-21T03:56:16;9.50;99.90
37446;DHT22;23307;51.136;14.942;2023-11-21T03:58:41;9.40;99.90
37446;DHT22;23307;51.136;14.942;2023-11-21T04:01:07;9.40;99.90
37446;DHT22;23307;51.136;14.942;2023-11-21T04:03:32;9.40;99.90
37446;DHT22;23307;51.136;14.942;2023-11-21T04:05:58;9.40;99.90
37446;DHT22;23307;51.136;14.942;2023-11-21T04:08:23;9.40;99.90
37446;DHT22;23307;51.136;14.942;2023-11-21T04:10:50;9.40;99.90
37446;DHT22;23307;51.136;14.942;2023-11-21T04:13:16;9.40;99.90
37446;DHT22;23307;51.136;14.942;2023-11-21T04:15:41;9.40;99.90
37446;DHT22;23307;51.136;14.942;2023-11-21T04:18:07;9.40;99.90
37446;DHT22;23307;51.136;14.942;2023-11-21T04:20:32;9.40;99.90
37446;DHT22;23307;51.136;14.942;2023-11-21T04:22:58;9.40;99.90
37446;DHT22;23307;51.136;14.942;2023-11-21T04:25:23;9.40;99.90
37446;DHT22;23307;51.136;14.942;2023-11-21T04:27:49;9.40;99.90
37446;DHT22;23307;51.136;14.942;2023-11-21T04:30:15;9.30;99.90
37446;DHT22;23307;51.136;14.942;2023-11-21T04:32:41;9.30;99.90
37446;DHT22;23307;51.136;14.942;2023-11-21T04:35:09;9.30;99.90
37446;DHT22;23307;51.136;14.942;2023-11-21T04:37:35;9.30;99.90
37446;DHT22;23307;51.136;14.942;2023-11-21T04:40:00;9.40;99.90
37446;DHT22;23307;51.136;14.942;2023-11-21T04:42:26;9.40;99.90
37446;DHT22;23307;51.136;14.942;2023-11-21T04:44:51;9.30;99.90
37446;DHT22;23307;51.136;14.942;2023-11-21T04:47:18;9.30;99.90
37446;DHT22;23307;51.136;14.942;2023-11-21T04:49:46;9.30;99.90
37446;DHT22;23307;51.136;14.942;2023-11-21T04:52:12;9.30;99.90
37446;DHT22;23307;51.136;14.942;2023-11-21T04:54:38;9.30;99.90
37446;DHT22;23307;51.136;14.942;2023-11-21T04:57:05;9.30;99.90
37446;DHT22;23307;51.136;14.942;2023-11-21T04:59:33;9.30;99.90
37446;DHT22;23307;51.136;14.942;2023-11-21T05:01:58;9.30;99.90
37446;DHT22;23307;51.136;14.942;2023-11-21T05:04:25;9.30;99.90
37446;DHT22;23307;51.136;14.942;2023-11-21T05:06:51;9.30;99.90
37446;DHT22;23307;51.136;14.942;2023-11-21T05:09:16;9.30;99.90
37446;DHT22;23307;51.136;14.942;2023-11-21T05:11:43;9.30;99.90
37446;DHT22;23307;51.136;14.942;2023-11-21T05:14:08;9.20;99.90
37446;DHT22;23307;51.136;14.942;2023-11-21T05:16:34;9.20;99.90
37446;DHT22;23307;51.136;14.942;2023-11-21T05:19:00;9.20;99.90
37446;DHT22;23307;51.136;14.942;2023-11-21T05:21:29;9.20;99.90
37446;DHT22;23307;51.136;14.942;2023-11-21T05:23:58;9.20;99.90
37446;DHT22;23307;51.136;14.942;2023-11-21T05:26:23;9.30;99.90
37446;DHT22;23307;51.136;14.942;2023-11-21T05:28:49;9.30;99.90
37446;DHT22;23307;51.136;14.942;2023-11-21T05:31:15;9.20;99.90
37446;DHT22;23307;51.136;14.942;2023-11-21T05:33:41;9.20;99.90
37446;DHT22;23307;51.136;14.942;2023-11-21T05:36:07;9.20;99.90
37446;DHT22;23307;51.136;14.942;2023-11-21T05:38:33;9.20;99.90
37446;DHT22;23307;51.136;14.942;2023-11-21T05:40:59;9.20;99.90
37446;DHT22;23307;51.136;14.942;2023-11-21T05:43:24;9.20;99.90
37446;DHT22;23307;51.136;14.942;2023-11-21T05:45:50;9.20;99.90
37446;DHT22;23307;51.136;14.942;2023-11-21T05:48:15;9.10;99.90
37446;DHT22;23307;51.136;14.942;2023-11-21T05:50:41;9.10;99.90
37446;DHT22;23307;51.136;14.942;2023-11-21T05:53:06;9.20;99.90
37446;DHT22;23307;51.136;14.942;2023-11-21T05:55:32;9.20;99.90
37446;DHT22;23307;51.136;14.942;2023-11-21T05:57:58;9.20;99.90
37446;DHT22;23307;51.136;14.942;2023-11-21T06:00:24;9.20;99.90
37446;DHT22;23307;51.136;14.942;2023-11-21T06:02:52;9.10;99.90
37446;DHT22;23307;51.136;14.942;2023-11-21T06:05:20;9.10;99.90
37446;DHT22;23307;51.136;14.942;2023-11-21T06:07:46;9.10;99.90
37446;DHT22;23307;51.136;14.942;2023-11-21T06:10:12;9.10;99.90
37446;DHT22;23307;51.136;14.942;2023-11-21T06:12:43;9.10;99.90
37446;DHT22;23307;51.136;14.942;2023-11-21T06:15:10;9.10;99.90
37446;DHT22;23307;51.136;14.942;2023-11-21T06:17:39;9.10;99.90
37446;DHT22;23307;51.136;14.942;2023-11-21T06:20:09;9.10;99.90
37446;DHT22;23307;51.136;14.942;2023-11-21T06:22:39;9.10;99.90
37446;DHT22;23307;51.136;14.942;2023-11-21T06:25:05;9.10;99.90
37446;DHT22;23307;51.136;14.942;2023-11-21T06:27:32;9.10;99.90
37446;DHT22;23307;51.136;14.942;2023-11-21T06:29:58;9.10;99.90
37446;DHT22;23307;51.136;14.942;2023-11-21T06:32:24;9.10;99.90
37446;DHT22;23307;51.136;14.942;2023-11-21T06:34:49;9.10;99.90
37446;DHT22;23307;51.136;14.942;2023-11-21T06:37:15;9.10;99.90
37446;DHT22;23307;51.136;14.942;2023-11-21T06:39:42;9.10;99.90
37446;DHT22;23307;51.136;14.942;2023-11-21T06:42:07;9.10;99.90
37446;DHT22;23307;51.136;14.942;2023-11-21T06:44:33;9.10;99.90
37446;DHT22;23307;51.136;14.942;2023-11-21T06:46:59;9.10;99.90
37446;DHT22;23307;51.136;14.942;2023-11-21T06:49:24;9.10;99.90
37446;DHT22;23307;51.136;14.942;2023-11-21T06:51:51;9.10;99.90
37446;DHT22;23307;51.136;14.942;2023-11-21T06:54:16;9.10;99.90
37446;DHT22;23307;51.136;14.942;2023-11-21T06:56:42;9.10;99.90
37446;DHT22;23307;51.136;14.942;2023-11-21T06:59:07;9.10;99.90
37446;DHT22;23307;51.136;14.942;2023-11-21T07:01:34;9.10;99.90
37446;DHT22;23307;51.136;14.942;2023-11-21T07:04:05;9.10;99.90
37446;DHT22;23307;51.136;14.942;2023-11-21T07:06:32;9.20;99.90
37446;DHT22;23307;51.136;14.942;2023-11-21T07:08:58;9.20;99.90
37446;DHT22;23307;51.136;14.942;2023-11-21T07:11:24;9.20;99.90
37446;DHT22;23307;51.136;14.942;2023-11-21T07:13:50;9.20;99.90
37446;DHT22;23307;51.136;14.942;2023-11-21T07:16:16;9.30;99.90
37446;DHT22;23307;51.136;14.942;2023-11-21T07:18:42;9.30;99.90
37446;DHT22;23307;51.136;14.942;2023-11-21T07:21:08;9.30;99.90
37446;DHT22;23307;51.136;14.942;2023-11-21T07:23:34;9.30;99.90
37446;DHT22;23307;51.136;14.942;2023-11-21T07:25:59;9.30;99.90
37446;DHT22;23307;51.136;14.942;2023-11-21T07:28:25;9.30;99.90
37446;DHT22;23307;51.136;14.942;2023-11-21T07:30:51;9.30;99.90
37446;DHT22;23307;51.136;14.942;2023-11-21T07:33:17;9.30;99.90
37446;DHT22;23307;51.136;14.942;2023-11-21T07:35:43;9.40;99.90
37446;DHT22;23307;51.136;14.942;2023-11-21T07:38:08;9.40;99.90
37446;DHT22;23307;51.136;14.942;2023-11-21T07:40:34;9.30;99.90
37446;DHT22;23307;51.136;14.942;2023-11-21T07:42:59;9.40;99.90
37446;DHT22;23307;51.136;14.942;2023-11-21T07:45:25;9.40;99.90
37446;DHT22;23307;51.136;14.942;2023-11-21T07:47:53;9.40;99.90
37446;DHT22;23307;51.136;14.942;2023-11-21T07:50:19;9.30;99.90
37446;DHT22;23307;51.136;14.942;2023-11-21T07:52:45;9.30;99.90
37446;DHT22;23307;51.136;14.942;2023-11-21T07:55:11;9.30;99.90
37446;DHT22;23307;51.136;14.942;2023-11-21T07:57:37;9.30;99.90
37446;DHT22;23307;51.136;14.942;2023-11-21T08:00:04;9.30;99.90
37446;DHT22;23307;51.136;14.942;2023-11-21T08:02:32;9.30;99.90
37446;DHT22;23307;51.136;14.942;2023-11-21T08:04:57;9.30;99.90
37446;DHT22;23307;51.136;14.942;2023-11-21T08:07:23;9.30;99.90
37446;DHT22;23307;51.136;14.942;2023-11-21T08:09:48;9.20;99.90
37446;DHT22;23307;51.136;14.942;2023-11-21T08:12:15;9.20;99.90
37446;DHT22;23307;51.136;14.942;2023-11-21T08:14:41;9.10;99.90
37446;DHT22;23307;51.136;14.942;2023-11-21T08:17:06;9.10;99.90
37446;DHT22;23307;51.136;14.942;2023-11-21T08:19:32;9.20;99.90
37446;DHT22;23307;51.136;14.942;2023-11-21T08:21:58;9.20;99.90
37446;DHT22;23307;51.136;14.942;2023-11-21T08:24:24;9.20;99.90
37446;DHT22;23307;51.136;14.942;2023-11-21T08:26:50;9.20;99.90
37446;DHT22;23307;51.136;14.942;2023-11-21T08:29:17;9.20;99.90
37446;DHT22;23307;51.136;14.942;2023-11-21T08:31:43;9.10;99.90
37446;DHT22;23307;51.136;14.942;2023-11-21T08:34:12;9.10;99.90
37446;DHT22;23307;51.136;14.942;2023-11-21T08:36:47;9.00;99.90
37446;DHT22;23307;51.136;14.942;2023-11-21T08:39:12;9.00;99.90
37446;DHT22;23307;51.136;14.942;2023-11-21T08:41:38;9.00;99.90
37446;DHT22;23307;51.136;14.942;2023-11-21T08:44:04;9.00;99.90
37446;DHT22;23307;51.136;14.942;2023-11-21T08:46:33;9.00;99.90
37446;DHT22;23307;51.136;14.942;2023-11-21T08:49:01;9.00;99.90
37446;DHT22;23307;51.136;14.942;2023-11-21T08:51:26;8.90;99.90
37446;DHT22;23307;51.136;14.942;2023-11-21T08:53:52;8.90;99.90
37446;DHT22;23307;51.136;14.942;2023-11-21T08:56:18;8.90;99.90
37446;DHT22;23307;51.136;14.942;2023-11-21T08:58:45;8.90;99.90
37446;DHT22;23307;51.136;14.942;2023-11-21T09:01:12;8.90;99.90
37446;DHT22;23307;51.136;14.942;2023-11-21T09:03:38;8.90;99.90
37446;DHT22;23307;51.136;14.942;2023-11-21T09:06:03;8.80;99.90
37446;DHT22;23307;51.136;14.942;2023-11-21T09:08:30;8.80;99.90
37446;DHT22;23307;51.136;14.942;2023-11-21T09:10:55;8.80;99.90
37446;DHT22;23307;51.136;14.942;2023-11-21T09:13:21;8.80;99.90
37446;DHT22;23307;51.136;14.942;2023-11-21T09:15:46;8.80;99.90
37446;DHT22;23307;51.136;14.942;2023-11-21T09:18:15;8.80;99.90
37446;DHT22;23307;51.136;14.942;2023-11-21T09:20:42;8.70;99.90
37446;DHT22;23307;51.136;14.942;2023-11-21T09:23:09;8.80;99.90
37446;DHT22;23307;51.136;14.942;2023-11-21T09:25:35;8.80;99.90
37446;DHT22;23307;51.136;14.942;2023-11-21T09:28:01;8.80;99.90
37446;DHT22;23307;51.136;14.942;2023-11-21T09:30:26;8.90;99.90
37446;DHT22;23307;51.136;14.942;2023-11-21T09:32:52;8.80;99.90
37446;DHT22;23307;51.136;14.942;2023-11-21T09:35:18;8.80;99.90
37446;DHT22;23307;51.136;14.942;2023-11-21T09:37:46;8.80;99.90
37446;DHT22;23307;51.136;14.942;2023-11-21T09:40:13;8.80;99.90
37446;DHT22;23307;51.136;14.942;2023-11-21T09:42:57;8.80;99.90
37446;DHT22;23307;51.136;14.942;2023-11-21T09:45:31;8.80;99.90
37446;DHT22;23307;51.136;14.942;2023-11-21T09:47:59;8.70;99.90
37446;DHT22;23307;51.136;14.942;2023-11-21T09:50:26;8.70;99.90
37446;DHT22;23307;51.136;14.942;2023-11-21T09:53:19;8.70;99.90
37446;DHT22;23307;51.136;14.942;2023-11-21T09:55:52;8.70;99.90
37446;DHT22;23307;51.136;14.942;2023-11-21T09:58:18;8.60;99.90
37446;DHT22;23307;51.136;14.942;2023-11-21T10:00:49;8.60;99.90
37446;DHT22;23307;51.136;14.942;2023-11-21T10:03:18;8.60;99.90
37446;DHT22;23307;51.136;14.942;2023-11-21T10:05:45;8.70;99.90
37446;DHT22;23307;51.136;14.942;2023-11-21T10:08:15;8.60;99.90
37446;DHT22;23307;51.136;14.942;2023-11-21T10:10:45;8.60;99.90
37446;DHT22;23307;51.136;14.942;2023-11-21T10:13:12;8.60;99.90
37446;DHT22;23307;51.136;14.942;2023-11-21T10:15:42;8.60;99.90
37446;DHT22;23307;51.136;14.942;2023-11-21T10:18:14;8.60;99.90
37446;DHT22;23307;51.136;14.942;2023-11-21T10:20:40;8.60;99.90
37446;DHT22;23307;51.136;14.942;2023-11-21T10:23:07;8.60;99.90
37446;DHT22;23307;51.136;14.942;2023-11-21T10:25:36;8.60;99.90
37446;DHT22;23307;51.136;14.942;2023-11-21T10:28:03;8.60;99.90
37446;DHT22;23307;51.136;14.942;2023-11-21T10:30:37;8.60;99.90
37446;DHT22;23307;51.136;14.942;2023-11-21T10:33:03;8.60;99.90
37446;DHT22;23307;51.136;14.942;2023-11-21T10:35:58;8.50;99.90
37446;DHT22;23307;51.136;14.942;2023-11-21T10:38:26;8.50;99.90
37446;DHT22;23307;51.136;14.942;2023-11-21T10:40:53;8.40;99.90
37446;DHT22;23307;51.136;14.942;2023-11-21T10:43:20;8.40;99.90
37446;DHT22;23307;51.136;14.942;2023-11-21T10:45:49;8.40;99.90
37446;DHT22;23307;51.136;14.942;2023-11-21T10:48:15;8.40;99.90
37446;DHT22;23307;51.136;14.942;2023-11-21T10:50:41;8.40;99.90
37446;DHT22;23307;51.136;14.942;2023-11-21T10:53:07;8.40;99.90
37446;DHT22;23307;51.136;14.942;2023-11-21T10:55:33;8.40;99.90
37446;DHT22;23307;51.136;14.942;2023-11-21T10:58:02;8.40;99.90
37446;DHT22;23307;51.136;14.942;2023-11-21T11:00:28;8.50;99.90
37446;DHT22;23307;51.136;14.942;2023-11-21T11:02:55;8.50;99.90
37446;DHT22;23307;51.136;14.942;2023-11-21T11:05:22;8.60;99.90
37446;DHT22;23307;51.136;14.942;2023-11-21T11:07:55;8.60;99.90
37446;DHT22;23307;51.136;14.942;2023-11-21T11:10:25;8.60;99.90
37446;DHT22;23307;51.136;14.942;2023-11-21T11:12:53;8.50;99.90
37446;DHT22;23307;51.136;14.942;2023-11-21T11:15:19;8.50;99.90
37446;DHT22;23307;51.136;14.942;2023-11-21T11:17:46;8.50;99.90
37446;DHT22;23307;51.136;14.942;2023-11-21T11:20:14;8.40;99.90
37446;DHT22;23307;51.136;14.942;2023-11-21T11:23:09;8.30;99.90
37446;DHT22;23307;51.136;14.942;2023-11-21T11:28:26;8.10;99.90
37446;DHT22;23307;51.136;14.942;2023-11-21T11:30:59;8.00;99.90
37446;DHT22;23307;51.136;14.942;2023-11-21T11:38:59;7.90;99.90
37446;DHT22;23307;51.136;14.942;2023-11-21T11:41:29;7.90;99.90
37446;DHT22;23307;51.136;14.942;2023-11-21T11:43:56;7.90;99.90
37446;DHT22;23307;51.136;14.942;2023-11-21T11:46:43;7.80;99.90
37446;DHT22;23307;51.136;14.942;2023-11-21T11:49:23;7.60;99.90
37446;DHT22;23307;51.136;14.942;2023-11-21T11:54:55;7.40;99.90
37446;DHT22;23307;51.136;14.942;2023-11-21T11:57:24;7.40;99.90
37446;DHT22;23307;51.136;14.942;2023-11-21T12:00:15;7.50;99.90
37446;DHT22;23307;51.136;14.942;2023-11-21T12:02:54;7.50;99.90
37446;DHT22;23307;51.136;14.942;2023-11-21T12:05:21;7.60;99.90
37446;DHT22;23307;51.136;14.942;2023-11-21T12:07:53;7.60;99.90
37446;DHT22;23307;51.136;14.942;2023-11-21T12:10:20;7.60;99.90
37446;DHT22;23307;51.136;14.942;2023-11-21T12:12:54;7.50;99.90
37446;DHT22;23307;51.136;14.942;2023-11-21T12:15:21;7.50;99.90
37446;DHT22;23307;51.136;14.942;2023-11-21T12:17:48;7.40;99.90
37446;DHT22;23307;51.136;14.942;2023-11-21T12:20:18;7.30;99.90
37446;DHT22;23307;51.136;14.942;2023-11-21T12:22:48;7.20;99.90
37446;DHT22;23307;51.136;14.942;2023-11-21T12:25:20;7.20;99.90
37446;DHT22;23307;51.136;14.942;2023-11-21T12:27:50;7.10;99.90
37446;DHT22;23307;51.136;14.942;2023-11-21T12:30:18;7.00;99.90
37446;DHT22;23307;51.136;14.942;2023-11-21T12:32:45;6.80;99.90
37446;DHT22;23307;51.136;14.942;2023-11-21T12:35:14;6.70;99.90
37446;DHT22;23307;51.136;14.942;2023-11-21T12:37:40;6.60;99.90
37446;DHT22;23307;51.136;14.942;2023-11-21T12:40:08;6.50;99.90
37446;DHT22;23307;51.136;14.942;2023-11-21T12:42:37;6.50;99.90
37446;DHT22;23307;51.136;14.942;2023-11-21T12:47:49;6.50;99.90
37446;DHT22;23307;51.136;14.942;2023-11-21T12:50:25;6.40;99.90
37446;DHT22;23307;51.136;14.942;2023-11-21T12:52:57;6.40;99.90
37446;DHT22;23307;51.136;14.942;2023-11-21T12:55:23;6.40;99.90
37446;DHT22;23307;51.136;14.942;2023-11-21T12:57:50;6.50;99.90
37446;DHT22;23307;51.136;14.942;2023-11-21T13:00:27;6.50;99.90
37446;DHT22;23307;51.136;14.942;2023-11-21T13:02:57;6.40;99.90
37446;DHT22;23307;51.136;14.942;2023-11-21T13:05:28;6.40;99.90
37446;DHT22;23307;51.136;14.942;2023-11-21T13:07:56;6.30;99.90
37446;DHT22;23307;51.136;14.942;2023-11-21T13:10:24;6.30;99.90
37446;DHT22;23307;51.136;14.942;2023-11-21T13:12:51;6.20;99.90
37446;DHT22;23307;51.136;14.942;2023-11-21T13:15:17;6.10;99.90
37446;DHT22;23307;51.136;14.942;2023-11-21T13:17:44;6.00;99.90
37446;DHT22;23307;51.136;14.942;2023-11-21T13:20:11;6.00;99.90
37446;DHT22;23307;51.136;14.942;2023-11-21T13:22:51;5.90;99.90
37446;DHT22;23307;51.136;14.942;2023-11-21T13:25:23;5.90;99.90
37446;DHT22;23307;51.136;14.942;2023-11-21T13:27:49;5.80;99.90
37446;DHT22;23307;51.136;14.942;2023-11-21T13:30:16;5.80;99.90
37446;DHT22;23307;51.136;14.942;2023-11-21T13:32:44;5.80;99.90
37446;DHT22;23307;51.136;14.942;2023-11-21T13:35:16;5.80;99.90
37446;DHT22;23307;51.136;14.942;2023-11-21T13:37:57;5.70;99.90
37446;DHT22;23307;51.136;14.942;2023-11-21T13:40:25;5.70;99.90
37446;DHT22;23307;51.136;14.942;2023-11-21T13:42:53;5.70;99.90
37446;DHT22;23307;51.136;14.942;2023-11-21T13:45:22;5.70;99.90
37446;DHT22;23307;51.136;14.942;2023-11-21T13:47:52;5.70;99.90
37446;DHT22;23307;51.136;14.942;2023-11-21T13:50:20;5.70;99.90
37446;DHT22;23307;51.136;14.942;2023-11-21T13:52:49;5.60;99.90
37446;DHT22;23307;51.136;14.942;2023-11-21T13:55:17;5.50;99.90
37446;DHT22;23307;51.136;14.942;2023-11-21T13:57:43;5.50;99.90
37446;DHT22;23307;51.136;14.942;2023-11-21T14:00:12;5.50;99.90
37446;DHT22;23307;51.136;14.942;2023-11-21T14:02:58;5.50;99.90
37446;DHT22;23307;51.136;14.942;2023-11-21T14:05:27;5.40;99.90
37446;DHT22;23307;51.136;14.942;2023-11-21T14:07:57;5.40;99.90
37446;DHT22;23307;51.136;14.942;2023-11-21T14:10:31;5.40;99.90
37446;DHT22;23307;51.136;14.942;2023-11-21T14:13:09;5.50;99.90
37446;DHT22;23307;51.136;14.942;2023-11-21T14:15:41;5.50;99.90
37446;DHT22;23307;51.136;14.942;2023-11-21T14:18:07;5.40;99.90
37446;DHT22;23307;51.136;14.942;2023-11-21T14:20:39;5.50;99.90
37446;DHT22;23307;51.136;14.942;2023-11-21T14:23:05;5.40;99.90
37446;DHT22;23307;51.136;14.942;2023-11-21T14:25:33;5.40;99.90
37446;DHT22;23307;51.136;14.942;2023-11-21T14:27:59;5.40;99.90
37446;DHT22;23307;51.136;14.942;2023-11-21T14:30:24;5.50;99.90
37446;DHT22;23307;51.136;14.942;2023-11-21T14:32:51;5.40;99.90
37446;DHT22;23307;51.136;14.942;2023-11-21T14:35:16;5.40;99.90
37446;DHT22;23307;51.136;14.942;2023-11-21T14:37:43;5.40;99.90
37446;DHT22;23307;51.136;14.942;2023-11-21T14:40:09;5.30;99.90
37446;DHT22;23307;51.136;14.942;2023-11-21T14:42:35;5.30;99.90
37446;DHT22;23307;51.136;14.942;2023-11-21T14:45:05;5.20;99.90
37446;DHT22;23307;51.136;14.942;2023-11-21T14:47:32;5.20;99.90
37446;DHT22;23307;51.136;14.942;2023-11-21T14:50:02;5.10;99.90
37446;DHT22;23307;51.136;14.942;2023-11-21T14:52:47;5.10;99.90
37446;DHT22;23307;51.136;14.942;2023-11-21T14:55:24;5.00;99.90
37446;DHT22;23307;51.136;14.942;2023-11-21T14:57:58;5.00;99.90
37446;DHT22;23307;51.136;14.942;2023-11-21T15:00:28;5.00;99.90
37446;DHT22;23307;51.136;14.942;2023-11-21T15:03:00;5.00;99.90
37446;DHT22;23307;51.136;14.942;2023-11-21T15:05:26;4.90;99.90
37446;DHT22;23307;51.136;14.942;2023-11-21T15:07:53;4.90;99.90
37446;DHT22;23307;51.136;14.942;2023-11-21T15:10:33;4.80;99.90
37446;DHT22;23307;51.136;14.942;2023-11-21T15:13:25;4.80;99.90
37446;DHT22;23307;51.136;14.942;2023-11-21T15:15:53;4.80;99.90
37446;DHT22;23307;51.136;14.942;2023-11-21T15:18:21;4.70;99.90
37446;DHT22;23307;51.136;14.942;2023-11-21T15:20:47;4.70;99.90
37446;DHT22;23307;51.136;14.942;2023-11-21T15:23:13;4.70;99.90
37446;DHT22;23307;51.136;14.942;2023-11-21T15:25:39;4.70;99.90
37446;DHT22;23307;51.136;14.942;2023-11-21T15:28:04;4.60;99.90
37446;DHT22;23307;51.136;14.942;2023-11-21T15:30:31;4.60;99.90
37446;DHT22;23307;51.136;14.942;2023-11-21T15:33:00;4.70;99.90
37446;DHT22;23307;51.136;14.942;2023-11-21T15:35:25;4.70;99.90
37446;DHT22;23307;51.136;14.942;2023-11-21T15:37:53;4.80;99.90
37446;DHT22;23307;51.136;14.942;2023-11-21T15:40:19;4.90;99.90
37446;DHT22;23307;51.136;14.942;2023-11-21T15:42:45;5.00;99.90
37446;DHT22;23307;51.136;14.942;2023-11-21T15:45:11;5.10;99.90
37446;DHT22;23307;51.136;14.942;2023-11-21T15:47:36;5.10;99.90